sensor_id;sensor_type;location;lat;lon;timestamp;P1;durP1;ratioP1;P2;durP2;ratioP2
22421;SDS011;11378;51.642;7.668;2022-11-18T00:01:23;2.22;;;1.48;;
22421;SDS011;11378;51.642;7.668;2022-11-18T00:03:50;1.48;;;1.23;;
22421;SDS011;11378;51.642;7.668;2022-11-18T00:06:20;1.45;;;1.35;;
22421;SDS011;11378;51.642;7.668;2022-11-18T00:08:47;1.50;;;1.25;;
22421;SDS011;11378;51.642;7.668;2022-11-18T00:11:15;1.30;;;1.20;;
22421;SDS011;11378;51.642;7.668;2022-11-18T00:13:59;1.50;;;1.25;;
22421;SDS011;11378;51.642;7.668;2022-11-18T00:17:05;1.92;;;1.50;;
22421;SDS011;11378;51.642;7.668;2022-11-18T00:19:35;1.80;;;1.42;;
22421;SDS011;11378;51.642;7.668;2022-11-18T00:22:02;1.33;;;1.20;;
22421;SDS011;11378;51.642;7.668;2022-11-18T00:24:29;2.17;;;1.42;;
22421;SDS011;11378;51.642;7.668;2022-11-18T00:26:56;1.80;;;1.17;;
22421;SDS011;11378;51.642;7.668;2022-11-18T00:29:23;1.70;;;1.33;;
22421;SDS011;11378;51.642;7.668;2022-11-18T00:31:56;2.03;;;1.15;;
22421;SDS011;11378;51.642;7.668;2022-11-18T00:36:49;2.45;;;1.20;;
22421;SDS011;11378;51.642;7.668;2022-11-18T00:39:16;1.70;;;1.30;;
22421;SDS011;11378;51.642;7.668;2022-11-18T00:41:43;1.27;;;1.17;;
22421;SDS011;11378;51.642;7.668;2022-11-18T00:44:28;2.35;;;1.35;;
22421;SDS011;11378;51.642;7.668;2022-11-18T00:46:55;1.30;;;1.10;;
22421;SDS011;11378;51.642;7.668;2022-11-18T00:49:21;1.20;;;1.10;;
22421;SDS011;11378;51.642;7.668;2022-11-18T00:51:48;1.58;;;1.10;;
22421;SDS011;11378;51.642;7.668;2022-11-18T00:54:15;2.80;;;1.15;;
22421;SDS011;11378;51.642;7.668;2022-11-18T00:56:41;1.50;;;1.20;;
22421;SDS011;11378;51.642;7.668;2022-11-18T00:59:08;1.35;;;1.20;;
22421;SDS011;11378;51.642;7.668;2022-11-18T01:01:34;1.50;;;1.10;;
22421;SDS011;11378;51.642;7.668;2022-11-18T01:04:01;1.73;;;1.33;;
22421;SDS011;11378;51.642;7.668;2022-11-18T01:06:28;2.00;;;1.30;;
22421;SDS011;11378;51.642;7.668;2022-11-18T01:08:54;1.17;;;1.00;;
22421;SDS011;11378;51.642;7.668;2022-11-18T01:11:21;1.42;;;1.20;;
22421;SDS011;11378;51.642;7.668;2022-11-18T01:14:06;1.75;;;1.20;;
22421;SDS011;11378;51.642;7.668;2022-11-18T01:16:32;1.95;;;1.05;;
22421;SDS011;11378;51.642;7.668;2022-11-18T01:18:59;1.90;;;1.30;;
22421;SDS011;11378;51.642;7.668;2022-11-18T01:21:25;1.65;;;1.15;;
22421;SDS011;11378;51.642;7.668;2022-11-18T01:23:53;2.00;;;1.33;;
22421;SDS011;11378;51.642;7.668;2022-11-18T01:26:19;1.23;;;1.13;;
22421;SDS011;11378;51.642;7.668;2022-11-18T01:28:46;1.58;;;1.27;;
22421;SDS011;11378;51.642;7.668;2022-11-18T01:31:13;1.90;;;1.17;;
22421;SDS011;11378;51.642;7.668;2022-11-18T01:33:40;1.73;;;1.30;;
22421;SDS011;11378;51.642;7.668;2022-11-18T01:36:20;1.63;;;1.15;;
22421;SDS011;11378;51.642;7.668;2022-11-18T01:38:47;1.88;;;1.27;;
22421;SDS011;11378;51.642;7.668;2022-11-18T01:41:13;1.95;;;1.23;;
22421;SDS011;11378;51.642;7.668;2022-11-18T01:46:12;1.35;;;1.10;;
22421;SDS011;11378;51.642;7.668;2022-11-18T01:48:39;1.25;;;1.15;;
22421;SDS011;11378;51.642;7.668;2022-11-18T01:51:07;1.98;;;1.17;;
22421;SDS011;11378;51.642;7.668;2022-11-18T01:53:35;1.93;;;1.00;;
22421;SDS011;11378;51.642;7.668;2022-11-18T01:56:05;1.00;;;0.90;;
22421;SDS011;11378;51.642;7.668;2022-11-18T01:58:40;1.52;;;1.13;;
22421;SDS011;11378;51.642;7.668;2022-11-18T02:01:08;1.02;;;0.93;;
22421;SDS011;11378;51.642;7.668;2022-11-18T02:03:35;1.65;;;1.10;;
22421;SDS011;11378;51.642;7.668;2022-11-18T02:06:02;1.83;;;1.13;;
22421;SDS011;11378;51.642;7.668;2022-11-18T02:08:29;1.30;;;1.15;;
22421;SDS011;11378;51.642;7.668;2022-11-18T02:10:58;1.52;;;1.00;;
22421;SDS011;11378;51.642;7.668;2022-11-18T02:13:24;1.52;;;1.15;;
22421;SDS011;11378;51.642;7.668;2022-11-18T02:15:57;3.28;;;1.13;;
22421;SDS011;11378;51.642;7.668;2022-11-18T02:21:27;1.25;;;1.13;;
22421;SDS011;11378;51.642;7.668;2022-11-18T02:26:53;1.75;;;1.20;;
22421;SDS011;11378;51.642;7.668;2022-11-18T02:29:25;1.45;;;1.27;;
22421;SDS011;11378;51.642;7.668;2022-11-18T02:32:08;1.13;;;1.00;;
22421;SDS011;11378;51.642;7.668;2022-11-18T02:39:58;1.63;;;0.98;;
22421;SDS011;11378;51.642;7.668;2022-11-18T02:42:25;1.63;;;1.20;;
22421;SDS011;11378;51.642;7.668;2022-11-18T02:44:54;1.42;;;1.00;;
22421;SDS011;11378;51.642;7.668;2022-11-18T02:47:22;1.65;;;1.30;;
22421;SDS011;11378;51.642;7.668;2022-11-18T02:49:51;1.15;;;1.05;;
22421;SDS011;11378;51.642;7.668;2022-11-18T02:52:18;1.20;;;1.10;;
22421;SDS011;11378;51.642;7.668;2022-11-18T02:54:46;1.58;;;1.02;;
22421;SDS011;11378;51.642;7.668;2022-11-18T02:57:13;1.50;;;1.20;;
22421;SDS011;11378;51.642;7.668;2022-11-18T02:59:40;1.10;;;1.00;;
22421;SDS011;11378;51.642;7.668;2022-11-18T03:02:08;1.10;;;1.00;;
22421;SDS011;11378;51.642;7.668;2022-11-18T03:04:35;1.20;;;1.10;;
22421;SDS011;11378;51.642;7.668;2022-11-18T03:07:12;1.35;;;1.20;;
22421;SDS011;11378;51.642;7.668;2022-11-18T03:09:41;1.27;;;1.17;;
22421;SDS011;11378;51.642;7.668;2022-11-18T03:19:58;1.67;;;1.10;;
22421;SDS011;11378;51.642;7.668;2022-11-18T03:25:25;1.20;;;0.98;;
22421;SDS011;11378;51.642;7.668;2022-11-18T03:30:29;1.42;;;1.15;;
22421;SDS011;11378;51.642;7.668;2022-11-18T03:33:11;1.00;;;0.90;;
22421;SDS011;11378;51.642;7.668;2022-11-18T03:35:38;1.77;;;1.33;;
22421;SDS011;11378;51.642;7.668;2022-11-18T03:38:10;2.47;;;1.17;;
22421;SDS011;11378;51.642;7.668;2022-11-18T03:40:38;1.23;;;1.13;;
22421;SDS011;11378;51.642;7.668;2022-11-18T03:43:11;1.17;;;1.08;;
22421;SDS011;11378;51.642;7.668;2022-11-18T03:45:41;1.10;;;1.00;;
22421;SDS011;11378;51.642;7.668;2022-11-18T03:48:10;1.27;;;1.10;;
22421;SDS011;11378;51.642;7.668;2022-11-18T03:50:42;1.30;;;1.10;;
22421;SDS011;11378;51.642;7.668;2022-11-18T03:53:10;1.83;;;0.90;;
22421;SDS011;11378;51.642;7.668;2022-11-18T03:55:38;2.92;;;1.10;;
22421;SDS011;11378;51.642;7.668;2022-11-18T04:00:33;1.27;;;0.98;;
22421;SDS011;11378;51.642;7.668;2022-11-18T04:03:01;1.23;;;0.98;;
22421;SDS011;11378;51.642;7.668;2022-11-18T04:05:28;1.83;;;1.00;;
22421;SDS011;11378;51.642;7.668;2022-11-18T04:08:00;1.50;;;1.00;;
22421;SDS011;11378;51.642;7.668;2022-11-18T04:10:32;1.00;;;0.90;;
22421;SDS011;11378;51.642;7.668;2022-11-18T04:13:11;1.65;;;1.45;;
22421;SDS011;11378;51.642;7.668;2022-11-18T04:15:39;1.13;;;1.02;;
22421;SDS011;11378;51.642;7.668;2022-11-18T04:18:06;1.05;;;0.95;;
22421;SDS011;11378;51.642;7.668;2022-11-18T04:20:33;1.20;;;1.10;;
22421;SDS011;11378;51.642;7.668;2022-11-18T04:23:02;1.08;;;0.90;;
22421;SDS011;11378;51.642;7.668;2022-11-18T04:25:28;1.30;;;0.98;;
22421;SDS011;11378;51.642;7.668;2022-11-18T04:27:55;1.10;;;1.00;;
22421;SDS011;11378;51.642;7.668;2022-11-18T04:30:21;1.17;;;1.00;;
22421;SDS011;11378;51.642;7.668;2022-11-18T04:32:48;0.85;;;0.80;;
22421;SDS011;11378;51.642;7.668;2022-11-18T04:35:14;1.85;;;1.13;;
22421;SDS011;11378;51.642;7.668;2022-11-18T04:37:41;1.25;;;1.00;;
22421;SDS011;11378;51.642;7.668;2022-11-18T04:40:07;1.27;;;1.10;;
22421;SDS011;11378;51.642;7.668;2022-11-18T04:42:34;0.95;;;0.95;;
22421;SDS011;11378;51.642;7.668;2022-11-18T04:45:01;1.13;;;0.93;;
22421;SDS011;11378;51.642;7.668;2022-11-18T04:47:27;1.23;;;0.93;;
22421;SDS011;11378;51.642;7.668;2022-11-18T04:49:53;1.55;;;1.15;;
22421;SDS011;11378;51.642;7.668;2022-11-18T04:52:20;2.08;;;1.20;;
22421;SDS011;11378;51.642;7.668;2022-11-18T04:54:46;1.40;;;1.00;;
22421;SDS011;11378;51.642;7.668;2022-11-18T04:57:12;2.40;;;1.02;;
22421;SDS011;11378;51.642;7.668;2022-11-18T04:59:39;2.17;;;1.08;;
22421;SDS011;11378;51.642;7.668;2022-11-18T05:02:05;1.13;;;1.02;;
22421;SDS011;11378;51.642;7.668;2022-11-18T05:04:32;1.48;;;1.10;;
22421;SDS011;11378;51.642;7.668;2022-11-18T05:06:59;2.63;;;1.00;;
22421;SDS011;11378;51.642;7.668;2022-11-18T05:09:26;1.50;;;1.27;;
22421;SDS011;11378;51.642;7.668;2022-11-18T05:11:53;1.92;;;1.10;;
22421;SDS011;11378;51.642;7.668;2022-11-18T05:14:38;1.48;;;1.23;;
22421;SDS011;11378;51.642;7.668;2022-11-18T05:17:06;1.52;;;1.08;;
22421;SDS011;11378;51.642;7.668;2022-11-18T05:19:33;1.50;;;1.20;;
22421;SDS011;11378;51.642;7.668;2022-11-18T05:21:59;1.10;;;1.00;;
22421;SDS011;11378;51.642;7.668;2022-11-18T05:24:26;1.20;;;1.00;;
22421;SDS011;11378;51.642;7.668;2022-11-18T05:26:52;1.10;;;1.00;;
22421;SDS011;11378;51.642;7.668;2022-11-18T05:29:19;1.77;;;1.33;;
22421;SDS011;11378;51.642;7.668;2022-11-18T05:31:46;1.08;;;0.98;;
22421;SDS011;11378;51.642;7.668;2022-11-18T05:34:13;1.83;;;1.05;;
22421;SDS011;11378;51.642;7.668;2022-11-18T05:36:39;1.35;;;1.00;;
22421;SDS011;11378;51.642;7.668;2022-11-18T05:39:06;1.35;;;1.15;;
22421;SDS011;11378;51.642;7.668;2022-11-18T05:41:33;1.13;;;1.02;;
22421;SDS011;11378;51.642;7.668;2022-11-18T05:44:18;0.88;;;0.88;;
22421;SDS011;11378;51.642;7.668;2022-11-18T05:46:44;0.88;;;0.85;;
22421;SDS011;11378;51.642;7.668;2022-11-18T05:49:11;2.40;;;1.58;;
22421;SDS011;11378;51.642;7.668;2022-11-18T05:51:37;3.42;;;1.27;;
22421;SDS011;11378;51.642;7.668;2022-11-18T05:54:05;1.10;;;1.00;;
22421;SDS011;11378;51.642;7.668;2022-11-18T05:56:36;1.92;;;1.10;;
22421;SDS011;11378;51.642;7.668;2022-11-18T05:59:03;1.10;;;0.88;;
22421;SDS011;11378;51.642;7.668;2022-11-18T06:01:31;1.83;;;1.02;;
22421;SDS011;11378;51.642;7.668;2022-11-18T06:04:00;1.50;;;0.90;;
22421;SDS011;11378;51.642;7.668;2022-11-18T06:06:28;1.25;;;1.00;;
22421;SDS011;11378;51.642;7.668;2022-11-18T06:08:56;1.10;;;1.00;;
22421;SDS011;11378;51.642;7.668;2022-11-18T06:11:23;1.10;;;1.00;;
22421;SDS011;11378;51.642;7.668;2022-11-18T06:13:59;1.30;;;1.10;;
22421;SDS011;11378;51.642;7.668;2022-11-18T06:16:27;3.30;;;0.90;;
22421;SDS011;11378;51.642;7.668;2022-11-18T06:18:54;1.63;;;1.17;;
22421;SDS011;11378;51.642;7.668;2022-11-18T06:21:20;1.13;;;0.95;;
22421;SDS011;11378;51.642;7.668;2022-11-18T06:23:47;1.85;;;1.20;;
22421;SDS011;11378;51.642;7.668;2022-11-18T06:26:14;1.75;;;1.00;;
22421;SDS011;11378;51.642;7.668;2022-11-18T06:28:41;1.50;;;1.00;;
22421;SDS011;11378;51.642;7.668;2022-11-18T06:31:08;1.10;;;1.00;;
22421;SDS011;11378;51.642;7.668;2022-11-18T06:33:35;1.10;;;0.95;;
22421;SDS011;11378;51.642;7.668;2022-11-18T06:36:01;1.10;;;1.00;;
22421;SDS011;11378;51.642;7.668;2022-11-18T06:38:27;1.17;;;1.08;;
22421;SDS011;11378;51.642;7.668;2022-11-18T06:40:57;1.50;;;1.05;;
22421;SDS011;11378;51.642;7.668;2022-11-18T06:43:24;1.00;;;0.90;;
22421;SDS011;11378;51.642;7.668;2022-11-18T06:46:03;1.15;;;1.00;;
22421;SDS011;11378;51.642;7.668;2022-11-18T06:48:48;1.27;;;0.95;;
22421;SDS011;11378;51.642;7.668;2022-11-18T06:51:15;1.08;;;0.90;;
22421;SDS011;11378;51.642;7.668;2022-11-18T06:53:41;1.15;;;0.98;;
22421;SDS011;11378;51.642;7.668;2022-11-18T06:56:09;1.08;;;1.00;;
22421;SDS011;11378;51.642;7.668;2022-11-18T06:58:36;1.10;;;0.90;;
22421;SDS011;11378;51.642;7.668;2022-11-18T07:01:13;1.35;;;1.13;;
22421;SDS011;11378;51.642;7.668;2022-11-18T07:03:40;1.30;;;1.00;;
22421;SDS011;11378;51.642;7.668;2022-11-18T07:06:07;1.60;;;1.05;;
22421;SDS011;11378;51.642;7.668;2022-11-18T07:08:34;1.77;;;0.93;;
22421;SDS011;11378;51.642;7.668;2022-11-18T07:11:02;1.10;;;1.00;;
22421;SDS011;11378;51.642;7.668;2022-11-18T07:13:30;1.38;;;1.00;;
22421;SDS011;11378;51.642;7.668;2022-11-18T07:16:00;1.10;;;0.80;;
22421;SDS011;11378;51.642;7.668;2022-11-18T07:18:28;1.15;;;1.00;;
22421;SDS011;11378;51.642;7.668;2022-11-18T07:20:55;1.50;;;1.00;;
22421;SDS011;11378;51.642;7.668;2022-11-18T07:23:21;1.70;;;1.00;;
22421;SDS011;11378;51.642;7.668;2022-11-18T07:25:47;1.08;;;0.82;;
22421;SDS011;11378;51.642;7.668;2022-11-18T07:28:14;1.45;;;1.00;;
22421;SDS011;11378;51.642;7.668;2022-11-18T07:30:40;1.48;;;1.00;;
22421;SDS011;11378;51.642;7.668;2022-11-18T07:33:06;2.83;;;1.30;;
22421;SDS011;11378;51.642;7.668;2022-11-18T07:35:33;2.95;;;1.05;;
22421;SDS011;11378;51.642;7.668;2022-11-18T07:37:59;3.05;;;0.82;;
22421;SDS011;11378;51.642;7.668;2022-11-18T07:40:26;4.30;;;1.20;;
22421;SDS011;11378;51.642;7.668;2022-11-18T07:42:52;3.05;;;0.90;;
22421;SDS011;11378;51.642;7.668;2022-11-18T07:45:21;2.33;;;0.87;;
22421;SDS011;11378;51.642;7.668;2022-11-18T07:47:48;1.02;;;0.90;;
22421;SDS011;11378;51.642;7.668;2022-11-18T07:50:15;1.20;;;1.10;;
22421;SDS011;11378;51.642;7.668;2022-11-18T07:52:42;1.95;;;0.90;;
22421;SDS011;11378;51.642;7.668;2022-11-18T07:55:08;2.50;;;1.10;;
22421;SDS011;11378;51.642;7.668;2022-11-18T07:57:35;1.63;;;1.17;;
22421;SDS011;11378;51.642;7.668;2022-11-18T08:00:02;1.42;;;0.95;;
22421;SDS011;11378;51.642;7.668;2022-11-18T08:02:37;5.32;;;1.13;;
22421;SDS011;11378;51.642;7.668;2022-11-18T08:05:03;1.63;;;0.98;;
22421;SDS011;11378;51.642;7.668;2022-11-18T08:07:30;1.23;;;0.90;;
22421;SDS011;11378;51.642;7.668;2022-11-18T08:09:56;1.05;;;0.85;;
22421;SDS011;11378;51.642;7.668;2022-11-18T08:12:22;1.10;;;1.02;;
22421;SDS011;11378;51.642;7.668;2022-11-18T08:14:49;1.52;;;1.08;;
22421;SDS011;11378;51.642;7.668;2022-11-18T08:17:15;2.28;;;1.20;;
22421;SDS011;11378;51.642;7.668;2022-11-18T08:19:41;1.05;;;0.90;;
22421;SDS011;11378;51.642;7.668;2022-11-18T08:22:08;2.28;;;1.20;;
22421;SDS011;11378;51.642;7.668;2022-11-18T08:24:34;1.58;;;1.08;;
22421;SDS011;11378;51.642;7.668;2022-11-18T08:27:01;3.00;;;1.00;;
22421;SDS011;11378;51.642;7.668;2022-11-18T08:29:27;1.90;;;1.08;;
22421;SDS011;11378;51.642;7.668;2022-11-18T08:31:53;3.35;;;1.10;;
22421;SDS011;11378;51.642;7.668;2022-11-18T08:34:20;1.02;;;0.95;;
22421;SDS011;11378;51.642;7.668;2022-11-18T08:36:46;3.83;;;1.30;;
22421;SDS011;11378;51.642;7.668;2022-11-18T08:39:12;2.42;;;1.02;;
22421;SDS011;11378;51.642;7.668;2022-11-18T08:41:40;2.25;;;1.17;;
22421;SDS011;11378;51.642;7.668;2022-11-18T08:44:07;1.77;;;1.02;;
22421;SDS011;11378;51.642;7.668;2022-11-18T08:46:35;0.80;;;0.80;;
22421;SDS011;11378;51.642;7.668;2022-11-18T08:49:01;1.02;;;0.90;;
22421;SDS011;11378;51.642;7.668;2022-11-18T08:51:28;3.08;;;1.17;;
22421;SDS011;11378;51.642;7.668;2022-11-18T08:53:54;1.83;;;1.10;;
22421;SDS011;11378;51.642;7.668;2022-11-18T08:56:21;3.25;;;0.98;;
22421;SDS011;11378;51.642;7.668;2022-11-18T08:58:49;2.00;;;1.00;;
22421;SDS011;11378;51.642;7.668;2022-11-18T09:01:15;1.40;;;0.93;;
22421;SDS011;11378;51.642;7.668;2022-11-18T09:03:42;1.98;;;1.10;;
22421;SDS011;11378;51.642;7.668;2022-11-18T09:06:13;0.85;;;0.80;;
22421;SDS011;11378;51.642;7.668;2022-11-18T09:08:40;1.60;;;1.00;;
22421;SDS011;11378;51.642;7.668;2022-11-18T09:11:07;1.75;;;1.02;;
22421;SDS011;11378;51.642;7.668;2022-11-18T09:13:33;1.27;;;0.93;;
22421;SDS011;11378;51.642;7.668;2022-11-18T09:16:01;1.13;;;1.02;;
22421;SDS011;11378;51.642;7.668;2022-11-18T09:18:27;1.33;;;1.08;;
22421;SDS011;11378;51.642;7.668;2022-11-18T09:20:54;1.58;;;1.10;;
22421;SDS011;11378;51.642;7.668;2022-11-18T09:23:21;1.00;;;0.90;;
22421;SDS011;11378;51.642;7.668;2022-11-18T09:25:47;1.73;;;0.90;;
22421;SDS011;11378;51.642;7.668;2022-11-18T09:28:14;1.30;;;1.00;;
22421;SDS011;11378;51.642;7.668;2022-11-18T09:30:40;1.00;;;0.90;;
22421;SDS011;11378;51.642;7.668;2022-11-18T09:33:07;1.27;;;0.80;;
22421;SDS011;11378;51.642;7.668;2022-11-18T09:35:33;1.15;;;0.90;;
22421;SDS011;11378;51.642;7.668;2022-11-18T09:37:59;1.30;;;1.00;;
22421;SDS011;11378;51.642;7.668;2022-11-18T09:40:26;1.40;;;1.08;;
22421;SDS011;11378;51.642;7.668;2022-11-18T09:45:22;1.30;;;0.90;;
22421;SDS011;11378;51.642;7.668;2022-11-18T09:47:50;1.15;;;0.95;;
22421;SDS011;11378;51.642;7.668;2022-11-18T09:50:17;1.25;;;1.10;;
22421;SDS011;11378;51.642;7.668;2022-11-18T09:52:47;0.80;;;0.70;;
22421;SDS011;11378;51.642;7.668;2022-11-18T09:55:15;0.88;;;0.88;;
22421;SDS011;11378;51.642;7.668;2022-11-18T10:00:15;1.55;;;1.00;;
22421;SDS011;11378;51.642;7.668;2022-11-18T10:05:16;1.08;;;0.95;;
22421;SDS011;11378;51.642;7.668;2022-11-18T10:07:48;0.80;;;0.77;;
22421;SDS011;11378;51.642;7.668;2022-11-18T10:10:19;1.27;;;1.17;;
22421;SDS011;11378;51.642;7.668;2022-11-18T10:22:55;3.38;;;1.00;;
22421;SDS011;11378;51.642;7.668;2022-11-18T10:25:23;0.73;;;0.70;;
22421;SDS011;11378;51.642;7.668;2022-11-18T10:27:50;1.10;;;0.80;;
22421;SDS011;11378;51.642;7.668;2022-11-18T10:30:17;1.58;;;1.00;;
22421;SDS011;11378;51.642;7.668;2022-11-18T10:32:58;1.30;;;0.90;;
22421;SDS011;11378;51.642;7.668;2022-11-18T10:40:32;0.98;;;0.75;;
22421;SDS011;11378;51.642;7.668;2022-11-18T10:42:59;0.70;;;0.70;;
22421;SDS011;11378;51.642;7.668;2022-11-18T10:45:29;1.25;;;0.93;;
22421;SDS011;11378;51.642;7.668;2022-11-18T10:48:00;1.00;;;0.80;;
22421;SDS011;11378;51.642;7.668;2022-11-18T10:50:36;1.05;;;0.95;;
22421;SDS011;11378;51.642;7.668;2022-11-18T10:53:04;2.15;;;1.02;;
22421;SDS011;11378;51.642;7.668;2022-11-18T10:55:31;1.00;;;0.90;;
22421;SDS011;11378;51.642;7.668;2022-11-18T10:58:02;1.58;;;1.00;;
22421;SDS011;11378;51.642;7.668;2022-11-18T11:00:34;1.52;;;1.00;;
22421;SDS011;11378;51.642;7.668;2022-11-18T11:05:46;1.05;;;0.70;;
22421;SDS011;11378;51.642;7.668;2022-11-18T11:08:19;0.77;;;0.65;;
22421;SDS011;11378;51.642;7.668;2022-11-18T11:10:56;1.05;;;0.90;;
22421;SDS011;11378;51.642;7.668;2022-11-18T11:13:23;1.27;;;1.00;;
22421;SDS011;11378;51.642;7.668;2022-11-18T11:15:52;0.70;;;0.70;;
22421;SDS011;11378;51.642;7.668;2022-11-18T11:18:22;0.95;;;0.85;;
22421;SDS011;11378;51.642;7.668;2022-11-18T11:21:11;1.02;;;0.90;;
22421;SDS011;11378;51.642;7.668;2022-11-18T11:23:38;1.00;;;0.80;;
22421;SDS011;11378;51.642;7.668;2022-11-18T11:26:11;2.33;;;1.00;;
22421;SDS011;11378;51.642;7.668;2022-11-18T11:28:45;0.88;;;0.85;;
22421;SDS011;11378;51.642;7.668;2022-11-18T11:39:25;0.80;;;0.80;;
22421;SDS011;11378;51.642;7.668;2022-11-18T11:44:47;0.80;;;0.75;;
22421;SDS011;11378;51.642;7.668;2022-11-18T12:01:04;0.70;;;0.70;;
22421;SDS011;11378;51.642;7.668;2022-11-18T12:06:02;0.90;;;0.90;;
22421;SDS011;11378;51.642;7.668;2022-11-18T12:08:29;1.35;;;1.25;;
22421;SDS011;11378;51.642;7.668;2022-11-18T12:18:46;1.35;;;1.17;;
22421;SDS011;11378;51.642;7.668;2022-11-18T12:27:11;1.80;;;1.27;;
22421;SDS011;11378;51.642;7.668;2022-11-18T12:32:24;1.15;;;0.90;;
22421;SDS011;11378;51.642;7.668;2022-11-18T12:34:58;0.98;;;0.98;;
22421;SDS011;11378;51.642;7.668;2022-11-18T12:40:00;1.42;;;0.90;;
22421;SDS011;11378;51.642;7.668;2022-11-18T12:42:37;1.42;;;1.10;;
22421;SDS011;11378;51.642;7.668;2022-11-18T12:50:50;1.43;;;1.33;;
22421;SDS011;11378;51.642;7.668;2022-11-18T12:56:21;1.25;;;1.13;;
22421;SDS011;11378;51.642;7.668;2022-11-18T12:58:52;1.15;;;0.93;;
22421;SDS011;11378;51.642;7.668;2022-11-18T13:01:20;5.55;;;1.08;;
22421;SDS011;11378;51.642;7.668;2022-11-18T13:03:48;1.03;;;0.93;;
22421;SDS011;11378;51.642;7.668;2022-11-18T13:09:00;1.13;;;1.02;;
22421;SDS011;11378;51.642;7.668;2022-11-18T13:11:30;2.90;;;1.27;;
22421;SDS011;11378;51.642;7.668;2022-11-18T13:14:17;16.95;;;9.02;;
22421;SDS011;11378;51.642;7.668;2022-11-18T13:20:23;12.48;;;6.28;;
22421;SDS011;11378;51.642;7.668;2022-11-18T13:22:55;8.05;;;6.10;;
22421;SDS011;11378;51.642;7.668;2022-11-18T13:25:41;9.32;;;6.38;;
22421;SDS011;11378;51.642;7.668;2022-11-18T13:28:18;8.18;;;5.72;;
22421;SDS011;11378;51.642;7.668;2022-11-18T13:31:20;9.10;;;5.15;;
22421;SDS011;11378;51.642;7.668;2022-11-18T13:33:39;9.32;;;5.43;;
22421;SDS011;11378;51.642;7.668;2022-11-18T13:36:18;7.65;;;4.72;;
22421;SDS011;11378;51.642;7.668;2022-11-18T13:38:59;7.95;;;4.57;;
22421;SDS011;11378;51.642;7.668;2022-11-18T13:41:26;5.50;;;4.65;;
22421;SDS011;11378;51.642;7.668;2022-11-18T13:44:18;9.07;;;4.72;;
22421;SDS011;11378;51.642;7.668;2022-11-18T13:46:47;5.97;;;4.07;;
22421;SDS011;11378;51.642;7.668;2022-11-18T13:49:16;6.32;;;4.13;;
22421;SDS011;11378;51.642;7.668;2022-11-18T13:51:43;14.65;;;5.90;;
22421;SDS011;11378;51.642;7.668;2022-11-18T13:54:11;8.88;;;5.70;;
22421;SDS011;11378;51.642;7.668;2022-11-18T13:56:38;8.05;;;5.80;;
22421;SDS011;11378;51.642;7.668;2022-11-18T13:59:11;12.48;;;5.80;;
22421;SDS011;11378;51.642;7.668;2022-11-18T14:01:40;8.32;;;5.65;;
22421;SDS011;11378;51.642;7.668;2022-11-18T14:04:15;8.07;;;5.40;;
22421;SDS011;11378;51.642;7.668;2022-11-18T14:06:42;6.90;;;4.97;;
22421;SDS011;11378;51.642;7.668;2022-11-18T14:09:25;8.40;;;5.38;;
22421;SDS011;11378;51.642;7.668;2022-11-18T14:12:05;7.25;;;4.45;;
22421;SDS011;11378;51.642;7.668;2022-11-18T14:14:33;7.50;;;4.97;;
22421;SDS011;11378;51.642;7.668;2022-11-18T14:17:17;7.95;;;4.50;;
22421;SDS011;11378;51.642;7.668;2022-11-18T14:19:45;10.65;;;4.47;;
22421;SDS011;11378;51.642;7.668;2022-11-18T14:22:16;5.93;;;4.10;;
22421;SDS011;11378;51.642;7.668;2022-11-18T14:24:43;5.68;;;4.18;;
22421;SDS011;11378;51.642;7.668;2022-11-18T14:27:32;6.45;;;4.18;;
22421;SDS011;11378;51.642;7.668;2022-11-18T14:29:59;5.75;;;3.80;;
22421;SDS011;11378;51.642;7.668;2022-11-18T14:32:25;5.40;;;4.05;;
22421;SDS011;11378;51.642;7.668;2022-11-18T14:34:58;4.55;;;3.65;;
22421;SDS011;11378;51.642;7.668;2022-11-18T14:37:25;4.72;;;3.90;;
22421;SDS011;11378;51.642;7.668;2022-11-18T14:39:55;4.78;;;3.50;;
22421;SDS011;11378;51.642;7.668;2022-11-18T14:42:22;5.68;;;3.90;;
22421;SDS011;11378;51.642;7.668;2022-11-18T14:44:49;5.00;;;3.58;;
22421;SDS011;11378;51.642;7.668;2022-11-18T14:47:19;5.40;;;4.20;;
22421;SDS011;11378;51.642;7.668;2022-11-18T14:49:46;5.13;;;3.42;;
22421;SDS011;11378;51.642;7.668;2022-11-18T14:52:12;6.90;;;3.70;;
22421;SDS011;11378;51.642;7.668;2022-11-18T14:54:38;4.47;;;3.28;;
22421;SDS011;11378;51.642;7.668;2022-11-18T14:57:05;4.65;;;3.00;;
22421;SDS011;11378;51.642;7.668;2022-11-18T14:59:31;6.90;;;3.20;;
22421;SDS011;11378;51.642;7.668;2022-11-18T15:01:58;7.72;;;3.80;;
22421;SDS011;11378;51.642;7.668;2022-11-18T15:04:24;3.92;;;3.05;;
22421;SDS011;11378;51.642;7.668;2022-11-18T15:06:51;4.65;;;3.80;;
22421;SDS011;11378;51.642;7.668;2022-11-18T15:09:17;6.10;;;3.65;;
22421;SDS011;11378;51.642;7.668;2022-11-18T15:11:44;4.13;;;3.15;;
22421;SDS011;11378;51.642;7.668;2022-11-18T15:14:10;4.18;;;3.10;;
22421;SDS011;11378;51.642;7.668;2022-11-18T15:16:36;6.13;;;3.55;;
22421;SDS011;11378;51.642;7.668;2022-11-18T15:19:04;4.88;;;3.00;;
22421;SDS011;11378;51.642;7.668;2022-11-18T15:21:30;4.75;;;3.22;;
22421;SDS011;11378;51.642;7.668;2022-11-18T15:23:57;4.60;;;2.85;;
22421;SDS011;11378;51.642;7.668;2022-11-18T15:26:24;7.00;;;4.45;;
22421;SDS011;11378;51.642;7.668;2022-11-18T15:28:51;9.23;;;4.15;;
22421;SDS011;11378;51.642;7.668;2022-11-18T15:31:18;8.20;;;4.43;;
22421;SDS011;11378;51.642;7.668;2022-11-18T15:33:45;5.78;;;4.30;;
22421;SDS011;11378;51.642;7.668;2022-11-18T15:36:15;8.80;;;4.38;;
22421;SDS011;11378;51.642;7.668;2022-11-18T15:38:42;6.32;;;4.45;;
22421;SDS011;11378;51.642;7.668;2022-11-18T15:41:18;6.22;;;4.18;;
22421;SDS011;11378;51.642;7.668;2022-11-18T15:43:46;7.85;;;4.00;;
22421;SDS011;11378;51.642;7.668;2022-11-18T15:46:12;6.40;;;4.45;;
22421;SDS011;11378;51.642;7.668;2022-11-18T15:48:39;5.88;;;4.20;;
22421;SDS011;11378;51.642;7.668;2022-11-18T15:51:05;5.93;;;3.83;;
22421;SDS011;11378;51.642;7.668;2022-11-18T15:53:32;4.75;;;3.72;;
22421;SDS011;11378;51.642;7.668;2022-11-18T15:58:44;5.13;;;3.47;;
22421;SDS011;11378;51.642;7.668;2022-11-18T16:01:10;5.82;;;3.75;;
22421;SDS011;11378;51.642;7.668;2022-11-18T16:03:37;5.07;;;3.67;;
22421;SDS011;11378;51.642;7.668;2022-11-18T16:06:03;5.47;;;3.80;;
22421;SDS011;11378;51.642;7.668;2022-11-18T16:08:29;6.20;;;3.70;;
22421;SDS011;11378;51.642;7.668;2022-11-18T16:10:56;4.13;;;3.42;;
22421;SDS011;11378;51.642;7.668;2022-11-18T16:13:41;3.58;;;3.05;;
22421;SDS011;11378;51.642;7.668;2022-11-18T16:16:16;4.80;;;3.25;;
22421;SDS011;11378;51.642;7.668;2022-11-18T16:18:42;6.63;;;3.20;;
22421;SDS011;11378;51.642;7.668;2022-11-18T16:21:09;4.45;;;2.90;;
22421;SDS011;11378;51.642;7.668;2022-11-18T16:23:35;4.18;;;3.08;;
22421;SDS011;11378;51.642;7.668;2022-11-18T16:26:01;3.38;;;3.05;;
22421;SDS011;11378;51.642;7.668;2022-11-18T16:28:28;5.28;;;2.90;;
22421;SDS011;11378;51.642;7.668;2022-11-18T16:30:54;3.20;;;2.90;;
22421;SDS011;11378;51.642;7.668;2022-11-18T16:33:39;3.70;;;2.67;;
22421;SDS011;11378;51.642;7.668;2022-11-18T16:36:06;3.63;;;2.92;;
22421;SDS011;11378;51.642;7.668;2022-11-18T16:38:32;7.57;;;3.45;;
22421;SDS011;11378;51.642;7.668;2022-11-18T16:40:59;3.83;;;3.10;;
22421;SDS011;11378;51.642;7.668;2022-11-18T16:43:25;3.22;;;2.80;;
22421;SDS011;11378;51.642;7.668;2022-11-18T16:45:52;4.13;;;3.33;;
22421;SDS011;11378;51.642;7.668;2022-11-18T16:48:18;4.47;;;3.22;;
22421;SDS011;11378;51.642;7.668;2022-11-18T16:50:47;5.38;;;3.90;;
22421;SDS011;11378;51.642;7.668;2022-11-18T16:53:17;6.03;;;4.60;;
22421;SDS011;11378;51.642;7.668;2022-11-18T16:55:43;6.28;;;4.90;;
22421;SDS011;11378;51.642;7.668;2022-11-18T16:58:09;6.30;;;3.92;;
22421;SDS011;11378;51.642;7.668;2022-11-18T17:00:36;6.35;;;4.22;;